Time;durP1;ratioP1;P1;durP2;ratioP2;P2;SDS_P1;SDS_P2;PMS_P1;PMS_P2;Temp;Humidity;BMP_temperature;BMP_pressure;BME280_temperature;BME280_humidity;BME280_pressure;Samples;Min_cycle;Max_cycle;Signal;HPM_P1;HPM_P2
2024/03/13 00:01:07;;;;;;;8.57;6.15;;;;;;;8.94;100.00;101154.25;5096061;28;20480;-68
2024/03/13 00:03:55;;;;;;;8.18;6.18;;;;;;;8.94;100.00;101156.13;5086608;28;20051;-69
2024/03/13 00:06:43;;;;;;;8.60;6.43;;;;;;;8.95;100.00;101153.19;5113423;28;20043;-69
2024/03/13 00:09:43;;;;;;;8.68;5.90;;;;;;;8.95;100.00;101147.75;5098759;28;20048;-69
2024/03/13 00:12:33;;;;;;;8.18;5.95;;;;;;;8.96;100.00;101141.22;5059877;28;20129;-69
2024/03/13 00:15:21;;;;;;;7.88;5.55;;;;;;;8.99;100.00;101142.63;5059489;28;20131;-70
2024/03/13 00:18:09;;;;;;;9.77;7.05;;;;;;;8.99;100.00;101148.06;5071271;28;20076;-69
2024/03/13 00:20:58;;;;;;;9.25;6.20;;;;;;;9.01;100.00;101150.53;5072083;28;20039;-70
2024/03/13 00:23:46;;;;;;;8.45;6.35;;;;;;;9.00;100.00;101155.16;5114165;28;20051;-69
2024/03/13 00:26:34;;;;;;;10.13;6.70;;;;;;;9.01;100.00;101155.97;5113210;28;20067;-69
2024/03/13 00:29:27;;;;;;;8.75;6.05;;;;;;;9.02;100.00;101149.44;5098079;28;20128;-69
2024/03/13 00:32:18;;;;;;;8.52;6.32;;;;;;;9.03;100.00;101151.13;5104207;28;20500;-69
2024/03/13 00:35:07;;;;;;;7.85;5.72;;;;;;;9.04;100.00;101156.28;5085929;28;20085;-69
2024/03/13 00:37:59;;;;;;;8.18;5.57;;;;;;;9.05;100.00;101163.38;5099145;28;20459;-69
2024/03/13 00:40:48;;;;;;;8.05;5.88;;;;;;;9.06;100.00;101161.47;5094695;28;20044;-69
2024/03/13 00:43:36;;;;;;;7.90;5.50;;;;;;;9.06;100.00;101173.16;5072285;28;20079;-69
2024/03/13 00:46:24;;;;;;;8.25;5.95;;;;;;;9.07;100.00;101166.69;5113367;28;20130;-68
2024/03/13 00:49:12;;;;;;;7.90;6.05;;;;;;;9.05;100.00;101165.28;5109976;28;20047;-69
2024/03/13 00:52:00;;;;;;;7.60;5.93;;;;;;;9.02;100.00;101168.47;5112463;28;20059;-68
2024/03/13 00:54:48;;;;;;;8.18;5.90;;;;;;;9.04;100.00;101171.78;5104218;28;20036;-68
2024/03/13 00:57:39;;;;;;;8.05;5.88;;;;;;;9.06;100.00;101172.34;5092364;28;20044;-69
2024/03/13 01:00:30;;;;;;;8.07;5.82;;;;;;;9.07;100.00;101165.88;5069921;28;20039;-69
2024/03/13 01:03:22;;;;;;;8.25;6.05;;;;;;;9.09;100.00;101171.84;5113172;28;20124;-69
2024/03/13 01:06:10;;;;;;;8.60;6.40;;;;;;;9.09;100.00;101172.69;5097768;28;20514;-69
2024/03/13 01:08:59;;;;;;;9.02;6.28;;;;;;;9.08;100.00;101172.94;5113200;28;20127;-68
2024/03/13 01:11:47;;;;;;;8.70;6.38;;;;;;;9.08;100.00;101176.47;5083040;28;20128;-69
2024/03/13 01:14:35;;;;;;;9.13;6.78;;;;;;;9.10;100.00;101170.78;5099611;28;20388;-69
2024/03/13 01:17:23;;;;;;;9.70;7.07;;;;;;;9.06;100.00;101175.88;5059171;28;20075;-68
2024/03/13 01:20:15;;;;;;;8.80;5.80;;;;;;;9.05;100.00;101168.00;5057818;28;20056;-69
2024/03/13 01:23:03;;;;;;;8.80;6.45;;;;;;;9.06;100.00;101169.63;5084808;28;20043;-69
2024/03/13 01:25:54;;;;;;;9.70;6.85;;;;;;;9.07;100.00;101171.31;5064623;28;20169;-69
2024/03/13 01:28:42;;;;;;;10.70;7.60;;;;;;;9.07;100.00;101168.59;5078297;28;20052;-71
2024/03/13 01:31:31;;;;;;;11.27;7.75;;;;;;;9.08;100.00;101162.88;5093246;28;20040;-69
2024/03/13 01:34:20;;;;;;;10.20;7.43;;;;;;;9.07;100.00;101165.88;5090792;28;20046;-70
2024/03/13 01:40:23;;;;;;;10.55;7.80;;;;;;;9.10;100.00;101165.34;5076614;28;20092;-70
2024/03/13 01:55:44;;;;;;;12.68;8.55;;;;;;;9.15;100.00;101149.13;5080358;28;20044;-70
2024/03/13 01:58:41;;;;;;;16.98;9.50;;;;;;;9.15;100.00;101147.22;5064038;28;20044;-69
2024/03/13 02:04:40;;;;;;;15.50;10.20;;;;;;;9.16;100.00;101158.91;5052676;28;20041;-70
2024/03/13 02:07:29;;;;;;;18.27;11.27;;;;;;;9.18;100.00;101162.19;5089807;28;20521;-71
2024/03/13 02:10:17;;;;;;;15.50;10.82;;;;;;;9.17;100.00;101166.00;5061404;28;20177;-70
2024/03/13 02:13:12;;;;;;;22.25;12.27;;;;;;;9.18;100.00;101168.44;5076234;28;20069;-70
2024/03/13 02:16:00;;;;;;;17.63;12.18;;;;;;;9.19;100.00;101152.97;5092022;28;20047;-70
2024/03/13 02:18:50;;;;;;;19.02;13.32;;;;;;;9.21;100.00;101158.97;5062026;28;20408;-70
2024/03/13 02:21:38;;;;;;;21.85;13.45;;;;;;;9.21;100.00;101153.53;5090647;28;20165;-69
2024/03/13 02:24:26;;;;;;;18.05;12.63;;;;;;;9.22;100.00;101152.47;5075848;28;20189;-69
2024/03/13 02:27:15;;;;;;;20.40;13.25;;;;;;;9.23;100.00;101148.66;5090066;28;20518;-70
2024/03/13 02:30:05;;;;;;;19.83;12.70;;;;;;;9.24;100.00;101153.06;5063825;28;20048;-70
2024/03/13 02:32:56;;;;;;;18.48;12.75;;;;;;;9.24;100.00;101144.91;5077183;28;20079;-69
2024/03/13 02:35:44;;;;;;;19.98;13.30;;;;;;;9.25;100.00;101151.16;5089893;28;20241;-69
2024/03/13 02:38:32;;;;;;;18.58;12.95;;;;;;;9.26;100.00;101158.22;5091737;28;20494;-69
2024/03/13 02:41:20;;;;;;;16.65;12.73;;;;;;;9.25;100.00;101154.69;5066435;28;20056;-69
2024/03/13 02:44:08;;;;;;;19.48;12.57;;;;;;;9.27;100.00;101149.81;5090750;28;20529;-69
2024/03/13 02:46:56;;;;;;;19.48;12.70;;;;;;;9.28;100.00;101156.06;5090708;28;20059;-69
2024/03/13 02:49:44;;;;;;;18.48;12.80;;;;;;;9.27;100.00;101155.25;5064010;28;20051;-68
2024/03/13 02:52:32;;;;;;;16.65;12.38;;;;;;;9.29;100.00;101157.75;5075098;28;20116;-70
2024/03/13 02:55:21;;;;;;;16.52;13.52;;;;;;;9.28;100.00;101156.91;5111868;28;20593;-69
2024/03/13 02:58:09;;;;;;;17.10;13.90;;;;;;;9.29;100.00;101150.41;5096535;28;20044;-69
2024/03/13 03:00:58;;;;;;;18.20;14.60;;;;;;;9.29;100.00;101142.25;5111423;28;20040;-69
2024/03/13 03:03:46;;;;;;;17.55;14.13;;;;;;;9.32;100.00;101147.16;5111637;28;20040;-69
2024/03/13 03:06:34;;;;;;;18.55;14.55;;;;;;;9.31;100.00;101156.41;5080502;28;20047;-69
2024/03/13 03:09:22;;;;;;;20.65;14.18;;;;;;;9.31;100.00;101145.53;5083600;28;20044;-70
2024/03/13 03:12:12;;;;;;;18.63;14.68;;;;;;;9.33;100.00;101145.25;5082889;28;20085;-69
2024/03/13 03:15:01;;;;;;;18.25;14.50;;;;;;;9.33;100.00;101148.84;5084804;28;20047;-69
2024/03/13 03:17:51;;;;;;;17.23;14.27;;;;;;;9.34;100.00;101150.47;5133703;28;20055;-69
2024/03/13 03:20:40;;;;;;;18.08;15.20;;;;;;;9.35;100.00;101151.28;5120894;28;20053;-69
2024/03/13 03:23:29;;;;;;;19.08;14.90;;;;;;;9.35;100.00;101157.53;5110948;28;20051;-70
2024/03/13 03:26:20;;;;;;;18.75;14.73;;;;;;;9.36;100.00;101153.75;5089849;28;20095;-69
2024/03/13 03:29:08;;;;;;;22.45;16.25;;;;;;;9.37;100.00;101155.41;5134135;28;20059;-67
2024/03/13 03:31:56;;;;;;;19.10;14.52;;;;;;;9.39;100.00;101158.69;5119183;28;20062;-68
2024/03/13 03:34:44;;;;;;;20.15;15.38;;;;;;;9.39;100.00;101157.88;5089037;28;20039;-69
2024/03/13 03:37:32;;;;;;;19.45;14.65;;;;;;;9.41;100.00;101163.06;5086704;28;20126;-69
2024/03/13 03:40:23;;;;;;;17.67;14.50;;;;;;;9.42;100.00;101157.34;5068202;28;20450;-69
2024/03/13 03:43:11;;;;;;;18.25;13.93;;;;;;;9.43;100.00;101161.75;5099328;28;20492;-69
2024/03/13 03:45:59;;;;;;;18.00;14.48;;;;;;;9.45;100.00;101164.19;5094580;28;20131;-69
2024/03/13 03:48:47;;;;;;;18.52;13.77;;;;;;;9.46;100.00;101165.84;5094555;28;20052;-69
2024/03/13 03:51:36;;;;;;;15.57;12.35;;;;;;;9.48;100.00;101167.25;5094261;28;20056;-70
2024/03/13 03:54:24;;;;;;;14.10;11.55;;;;;;;9.50;100.00;101169.69;5114050;28;20052;-70
2024/03/13 03:57:12;;;;;;;13.77;10.93;;;;;;;9.53;100.00;101177.38;5114219;28;20044;-69
2024/03/13 04:00:00;;;;;;;12.93;9.80;;;;;;;9.56;100.00;101165.97;5098738;28;20130;-69
2024/03/13 04:02:51;;;;;;;11.82;8.65;;;;;;;9.57;100.00;101173.03;5113457;28;20517;-69
2024/03/13 04:05:40;;;;;;;12.07;9.25;;;;;;;9.59;100.00;101169.00;5112878;28;20039;-69
2024/03/13 04:08:28;;;;;;;13.23;8.98;;;;;;;9.62;100.00;101180.44;5113818;28;20043;-70
2024/03/13 04:11:16;;;;;;;10.90;8.35;;;;;;;9.63;100.00;101177.50;5093688;28;20044;-70
2024/03/13 04:14:04;;;;;;;15.20;8.40;;;;;;;9.66;100.00;101184.31;5106221;28;20054;-70
2024/03/13 04:16:52;;;;;;;10.55;7.78;;;;;;;9.66;100.00;101174.25;5100189;28;20050;-69
2024/03/13 04:19:42;;;;;;;10.80;7.75;;;;;;;9.66;100.00;101179.69;5111885;28;20040;-70
2024/03/13 04:22:31;;;;;;;9.85;7.68;;;;;;;9.67;100.00;101181.38;5113541;28;20040;-70
2024/03/13 04:25:20;;;;;;;11.20;8.25;;;;;;;9.68;100.00;101172.13;5085419;28;20524;-70
2024/03/13 04:28:08;;;;;;;13.45;8.13;;;;;;;9.69;100.00;101184.66;5113791;28;20044;-70
2024/03/13 04:30:57;;;;;;;10.48;8.20;;;;;;;9.69;100.00;101189.25;5097241;28;20374;-69
2024/03/13 04:33:45;;;;;;;9.90;7.72;;;;;;;9.69;100.00;101184.66;5114660;28;20051;-69
2024/03/13 04:36:38;;;;;;;9.80;7.63;;;;;;;9.70;100.00;101186.28;5085108;28;20050;-70
2024/03/13 04:39:26;;;;;;;9.80;7.82;;;;;;;9.69;100.00;101190.09;5086489;28;20097;-70
2024/03/13 04:42:14;;;;;;;10.68;7.85;;;;;;;9.72;100.00;101189.59;5070693;28;20503;-70
2024/03/13 04:45:02;;;;;;;9.93;7.05;;;;;;;9.72;100.00;101192.31;5096947;28;20120;-69
2024/03/13 04:47:50;;;;;;;10.27;7.60;;;;;;;9.73;100.00;101202.09;5094483;28;20040;-69
2024/03/13 04:50:38;;;;;;;10.18;7.25;;;;;;;9.74;100.00;101198.31;5083653;28;20054;-69
2024/03/13 04:53:26;;;;;;;10.82;7.72;;;;;;;9.74;100.00;101198.31;5069167;28;20059;-70
2024/03/13 04:56:14;;;;;;;10.80;7.10;;;;;;;9.73;100.00;101195.84;5106025;28;20044;-69
2024/03/13 04:59:02;;;;;;;10.85;7.10;;;;;;;9.71;100.00;101204.25;5113508;28;20261;-70
2024/03/13 05:01:50;;;;;;;11.32;7.78;;;;;;;9.71;100.00;101203.44;5098435;28;20122;-69
2024/03/13 05:04:38;;;;;;;11.38;7.38;;;;;;;9.71;100.00;101201.53;5110507;28;20127;-70
2024/03/13 05:07:27;;;;;;;10.55;7.93;;;;;;;9.72;100.00;101205.09;5085802;28;20048;-69
2024/03/13 05:10:16;;;;;;;12.07;8.85;;;;;;;9.72;100.00;101208.63;5064395;28;20122;-70
2024/03/13 05:13:06;;;;;;;11.43;8.43;;;;;;;9.74;100.00;101209.22;5092641;28;20369;-70
2024/03/13 05:15:54;;;;;;;12.77;8.85;;;;;;;9.74;100.00;101211.09;5086936;28;20044;-69
2024/03/13 05:18:43;;;;;;;11.90;9.00;;;;;;;9.76;100.00;101217.09;5098228;28;20056;-69
2024/03/13 05:21:31;;;;;;;11.13;8.77;;;;;;;9.74;100.00;101214.66;5112189;28;20107;-70
2024/03/13 05:24:19;;;;;;;11.55;8.20;;;;;;;9.74;100.00;101220.09;5097928;28;20055;-69
2024/03/13 05:27:08;;;;;;;11.23;8.10;;;;;;;9.74;100.00;101217.38;5110753;28;20530;-69
2024/03/13 05:29:56;;;;;;;11.40;8.75;;;;;;;9.75;100.00;101221.72;5111474;28;20047;-70
2024/03/13 05:32:45;;;;;;;12.00;8.25;;;;;;;9.76;100.00;101217.91;5098208;28;20423;-69
2024/03/13 05:35:33;;;;;;;12.40;9.15;;;;;;;9.77;100.00;101230.47;5113647;28;20047;-69
2024/03/13 05:38:21;;;;;;;12.90;9.30;;;;;;;9.77;100.00;101218.75;5097678;28;20364;-69
2024/03/13 05:41:09;;;;;;;12.70;9.77;;;;;;;9.76;100.00;101228.78;5097806;28;20379;-69
2024/03/13 05:43:57;;;;;;;14.13;10.52;;;;;;;9.77;100.00;101222.28;5095607;28;20051;-69
2024/03/13 05:46:45;;;;;;;12.57;9.98;;;;;;;9.79;100.00;101231.03;5111308;28;20649;-69
2024/03/13 05:49:33;;;;;;;12.30;8.82;;;;;;;9.78;100.00;101223.94;5096694;28;20050;-69
2024/03/13 05:52:21;;;;;;;13.30;10.38;;;;;;;9.79;100.00;101228.31;5098053;28;20375;-69
2024/03/13 05:55:09;;;;;;;12.98;9.50;;;;;;;9.79;100.00;101225.59;5111541;28;20495;-69
2024/03/13 05:57:58;;;;;;;12.77;9.30;;;;;;;9.79;100.00;101236.47;5111669;28;20051;-69
2024/03/13 06:00:47;;;;;;;12.93;9.40;;;;;;;9.80;100.00;101240.84;5084552;28;20496;-69
2024/03/13 06:03:36;;;;;;;12.45;9.10;;;;;;;9.80;100.00;101238.13;5097791;28;20052;-69
2024/03/13 06:06:24;;;;;;;14.93;10.38;;;;;;;9.78;100.00;101234.81;5111137;28;20051;-70
2024/03/13 06:09:12;;;;;;;17.45;10.95;;;;;;;9.78;100.00;101242.16;5097293;28;20118;-69
2024/03/13 06:12:03;;;;;;;14.40;10.77;;;;;;;9.77;100.00;101240.53;5097545;28;20047;-68
2024/03/13 06:14:52;;;;;;;14.25;11.30;;;;;;;9.76;100.00;101245.13;5118208;28;20048;-68
2024/03/13 06:17:48;;;;;;;14.43;10.88;;;;;;;9.78;100.00;101247.59;5079393;28;20080;-68
2024/03/13 06:20:36;;;;;;;14.70;10.63;;;;;;;9.78;100.00;101239.44;5077771;28;20122;-67
2024/03/13 06:23:26;;;;;;;15.50;10.95;;;;;;;9.81;100.00;101242.50;5063531;28;20047;-67
2024/03/13 06:26:18;;;;;;;17.08;11.40;;;;;;;9.81;100.00;101247.94;5074473;28;20134;-67
2024/03/13 06:32:14;;;;;;;15.10;11.50;;;;;;;9.82;100.00;101246.84;5100066;28;20086;-67
2024/03/13 06:35:05;;;;;;;14.82;10.98;;;;;;;9.82;100.00;101252.28;5096462;28;20047;-70
2024/03/13 06:37:55;;;;;;;14.95;10.65;;;;;;;9.82;100.00;101255.00;5100277;28;20040;-68
2024/03/13 06:40:43;;;;;;;16.83;11.75;;;;;;;9.85;100.00;101247.44;5083663;28;20176;-67
2024/03/13 06:43:31;;;;;;;15.38;11.15;;;;;;;9.84;100.00;101252.06;4755100;28;10000586;-69
2024/03/13 06:46:20;;;;;;;16.00;12.00;;;;;;;9.85;100.00;101255.59;5107952;28;20043;-67
2024/03/13 06:49:08;;;;;;;16.92;12.35;;;;;;;9.85;100.00;101261.03;5091515;28;20043;-68
2024/03/13 06:51:56;;;;;;;17.00;12.60;;;;;;;9.87;100.00;101258.88;5107392;28;20065;-68
2024/03/13 06:54:44;;;;;;;17.80;12.98;;;;;;;9.87;100.00;101264.34;5093895;28;20032;-68
2024/03/13 06:57:32;;;;;;;19.13;14.02;;;;;;;9.87;100.00;101256.16;5107407;28;20511;-67
2024/03/13 07:00:21;;;;;;;21.52;15.38;;;;;;;9.89;100.00;101259.47;5088560;28;20052;-67
2024/03/13 07:03:09;;;;;;;19.35;14.98;;;;;;;9.88;100.00;101263.25;5060037;28;20139;-68
2024/03/13 07:05:57;;;;;;;24.73;17.25;;;;;;;9.87;100.00;101267.88;5072748;28;20075;-67
2024/03/13 07:08:45;;;;;;;27.05;18.23;;;;;;;9.89;100.00;101275.78;5094171;28;20428;-68
2024/03/13 07:11:33;;;;;;;25.38;17.70;;;;;;;9.89;100.00;101275.78;5103532;28;20130;-68
2024/03/13 07:14:22;;;;;;;30.35;18.10;;;;;;;9.90;100.00;101280.97;5076147;28;20505;-68
2024/03/13 07:17:10;;;;;;;24.13;16.88;;;;;;;9.91;100.00;101273.63;5076831;28;20052;-70
2024/03/13 07:19:59;;;;;;;25.25;15.65;;;;;;;9.92;100.00;101283.44;5089088;28;20126;-67
2024/03/13 07:22:47;;;;;;;26.02;13.55;;;;;;;9.91;100.00;101279.06;5111810;28;20070;-68
2024/03/13 07:25:36;;;;;;;23.08;13.40;;;;;;;9.91;100.00;101273.63;5111453;28;20052;-68
2024/03/13 07:28:24;;;;;;;24.75;14.00;;;;;;;9.86;100.00;101273.56;5096294;28;20574;-67
2024/03/13 07:31:13;;;;;;;24.75;14.93;;;;;;;9.85;100.00;101280.91;5095816;28;20424;-68
2024/03/13 07:34:01;;;;;;;24.75;15.50;;;;;;;9.84;100.00;101283.88;5076120;28;20048;-68
2024/03/13 07:36:49;;;;;;;23.17;14.60;;;;;;;9.85;100.00;101280.09;5094876;28;20052;-68
2024/03/13 07:39:37;;;;;;;21.55;13.85;;;;;;;9.85;100.00;101288.25;5097985;28;20076;-65
2024/03/13 07:42:25;;;;;;;21.00;12.15;;;;;;;9.89;100.00;101292.13;5116939;28;20069;-66
2024/03/13 07:45:16;;;;;;;21.17;12.10;;;;;;;9.92;100.00;101291.63;5127043;28;20054;-67
2024/03/13 07:48:07;;;;;;;22.55;11.70;;;;;;;9.93;100.00;101299.53;5132904;28;20028;-67
2024/03/13 07:50:56;;;;;;;20.23;11.25;;;;;;;9.95;100.00;101296.53;5115187;28;20044;-67
2024/03/13 07:53:43;;;;;;;19.52;11.50;;;;;;;9.97;100.00;101297.13;5113253;28;20048;-67
2024/03/13 07:56:32;;;;;;;21.40;11.43;;;;;;;9.99;100.00;101303.13;5094034;28;20042;-67
2024/03/13 07:59:25;;;;;;;20.23;11.45;;;;;;;10.01;100.00;101307.25;5105302;28;20387;-67
2024/03/13 08:02:14;;;;;;;21.70;12.00;;;;;;;10.01;100.00;101312.69;5087911;28;20111;-69
2024/03/13 08:05:02;;;;;;;23.55;12.65;;;;;;;10.02;100.00;101306.16;5095597;28;20268;-68
2024/03/13 08:07:50;;;;;;;21.73;12.48;;;;;;;10.03;100.00;101307.00;5105095;28;20051;-68
2024/03/13 08:10:56;;;;;;;19.92;11.27;;;;;;;10.05;100.00;101314.91;5106592;28;20032;-68
2024/03/13 08:14:02;;;;;;;19.63;11.52;;;;;;;10.06;100.00;101322.84;5068384;28;20048;-68
2024/03/13 08:17:08;;;;;;;25.30;11.50;;;;;;;10.07;100.00;101324.47;5082345;28;20105;-68
2024/03/13 08:20:14;;;;;;;;;;;;;;;10.10;100.00;101329.44;5105051;28;20134;-68
2024/03/13 08:23:19;;;;;;;21.60;13.25;;;;;;;10.10;100.00;101331.31;5113030;28;19911;-68
2024/03/13 08:26:24;;;;;;;20.33;12.82;;;;;;;10.13;100.00;101339.81;5112903;28;20047;-68
2024/03/13 08:29:30;;;;;;;24.55;16.08;;;;;;;10.14;100.00;101335.19;5106392;28;20117;-67
2024/03/13 08:32:35;;;;;;;22.25;14.70;;;;;;;10.15;100.00;101343.13;5096841;28;20039;-68
2024/03/13 08:35:41;;;;;;;25.75;17.70;;;;;;;10.16;100.00;101350.19;5067275;28;20039;-67
2024/03/13 08:38:46;;;;;;;29.02;17.52;;;;;;;10.15;100.00;101345.84;5085759;28;20104;-68
2024/03/13 08:41:52;;;;;;;33.53;19.02;;;;;;;10.16;100.00;101349.38;5092946;28;20063;-68
2024/03/13 08:44:57;;;;;;;31.35;19.80;;;;;;;10.19;100.00;101352.41;5078021;28;20051;-68
2024/03/13 08:48:07;;;;;;;;;;;;;;;10.18;100.00;101353.50;5081826;28;20044;-68
2024/03/13 08:51:13;;;;;;;33.22;20.02;;;;;;;10.19;100.00;101366.00;5087365;28;19916;-68
2024/03/13 08:54:19;;;;;;;;;;;;;;;10.19;100.00;101366.00;5103769;28;20047;-68
2024/03/13 08:57:24;;;;;;;31.17;20.70;;;;;;;10.18;100.00;101364.38;5111355;28;20264;-68
2024/03/13 09:00:30;;;;;;;;;;;;;;;10.20;100.00;101370.41;5093037;28;20051;-68
2024/03/13 09:03:36;;;;;;;32.60;20.05;;;;;;;10.20;100.00;101381.28;5072919;28;19927;-68
2024/03/13 09:06:41;;;;;;;32.75;20.55;;;;;;;10.22;100.00;101379.16;5069376;28;20472;-67
2024/03/13 09:09:30;;;;;;;31.00;21.05;;;;;;;10.23;100.00;101375.34;5083686;28;20047;-67
2024/03/13 09:12:19;;;;;;;31.35;20.33;;;;;;;10.23;100.00;101375.34;5096267;28;20039;-68
2024/03/13 09:15:08;;;;;;;34.53;20.58;;;;;;;10.27;100.00;101369.38;5112820;28;20134;-67
2024/03/13 09:17:58;;;;;;;32.03;20.50;;;;;;;10.28;100.00;101373.78;5098431;28;20047;-68
2024/03/13 09:20:46;;;;;;;31.25;23.05;;;;;;;10.29;100.00;101370.81;5097599;28;20546;-69
2024/03/13 09:23:34;;;;;;;35.25;22.83;;;;;;;10.32;100.00;101372.19;5098809;28;20479;-69
2024/03/13 09:26:22;;;;;;;31.95;21.70;;;;;;;10.34;100.00;101370.91;5109596;28;20125;-68
2024/03/13 09:29:10;;;;;;;34.88;23.45;;;;;;;10.36;100.00;101370.63;5097701;28;20219;-68
2024/03/13 09:31:59;;;;;;;35.30;23.52;;;;;;;10.39;100.00;101370.09;5092721;28;20044;-69
2024/03/13 09:34:47;;;;;;;33.78;23.35;;;;;;;10.42;100.00;101377.81;5069865;28;20052;-68
2024/03/13 09:37:40;;;;;;;31.88;20.98;;;;;;;10.42;100.00;101381.34;5111196;28;20389;-69
2024/03/13 09:40:29;;;;;;;32.13;22.60;;;;;;;10.41;100.00;101376.97;5096707;28;20063;-70
2024/03/13 09:43:17;;;;;;;31.63;24.00;;;;;;;10.35;100.00;101375.25;5099676;28;20059;-67
2024/03/13 09:46:13;;;;;;;38.63;26.42;;;;;;;10.34;100.00;101378.22;5095701;28;20428;-67
2024/03/13 09:49:02;;;;;;;40.25;27.33;;;;;;;10.31;100.00;101376.00;5083716;28;20047;-69
2024/03/13 09:51:52;;;;;;;41.17;28.17;;;;;;;10.30;100.00;101388.81;5094027;28;20055;-68
2024/03/13 09:54:43;;;;;;;39.60;28.02;;;;;;;10.30;100.00;101393.44;5081237;28;20462;-69
2024/03/13 09:57:33;;;;;;;42.95;29.00;;;;;;;10.28;100.00;101399.13;5084077;28;20058;-67
2024/03/13 10:00:21;;;;;;;43.30;29.63;;;;;;;10.29;100.00;101399.94;5082191;28;20054;-69
2024/03/13 10:03:21;;;;;;;46.65;30.88;;;;;;;10.28;100.00;101403.72;5072388;28;20054;-69
2024/03/13 10:06:11;;;;;;;43.70;28.13;;;;;;;10.30;100.00;101401.63;5065078;28;20426;-69
2024/03/13 10:09:00;;;;;;;41.13;26.00;;;;;;;10.31;100.00;101400.53;5084350;28;20047;-71
2024/03/13 10:11:49;;;;;;;41.13;26.00;;;;;;;10.34;100.00;101402.72;5112733;28;20118;-70
2024/03/13 10:14:39;;;;;;;35.97;24.75;;;;;;;10.37;100.00;101402.25;5083422;28;20040;-70
2024/03/13 10:17:29;;;;;;;38.83;25.20;;;;;;;10.37;100.00;101408.53;5035421;28;20052;-70
2024/03/13 10:20:18;;;;;;;37.28;23.38;;;;;;;10.37;100.00;101402.25;5087071;28;20051;-71
2024/03/13 10:23:11;;;;;;;37.15;24.02;;;;;;;10.39;100.00;101416.41;5054408;28;20796;-69
2024/03/13 10:26:00;;;;;;;32.47;22.83;;;;;;;10.40;100.00;101410.72;5110565;28;20078;-69
2024/03/13 10:28:49;;;;;;;35.00;23.13;;;;;;;10.41;100.00;101409.66;5077630;28;20502;-68
2024/03/13 10:31:38;;;;;;;33.20;22.42;;;;;;;10.42;100.00;101407.75;5090485;28;20120;-68
2024/03/13 10:34:27;;;;;;;40.25;26.52;;;;;;;10.42;100.00;101410.50;5096459;28;20450;-69
2024/03/13 10:37:15;;;;;;;41.00;27.13;;;;;;;10.44;100.00;101413.78;5082055;28;20063;-68
2024/03/13 10:40:07;;;;;;;37.55;26.63;;;;;;;10.44;100.00;101409.16;5080116;28;20062;-69
2024/03/13 10:42:56;;;;;;;38.45;26.08;;;;;;;10.47;100.00;101413.28;5097452;28;20047;-69
2024/03/13 10:45:48;;;;;;;35.92;26.25;;;;;;;10.47;100.00;101415.19;5094756;28;20040;-69
2024/03/13 10:48:38;;;;;;;33.15;24.90;;;;;;;10.48;100.00;101416.81;5090164;28;20492;-69
2024/03/13 10:51:30;;;;;;;38.45;27.20;;;;;;;10.45;100.00;101413.53;5084084;28;20169;-68
2024/03/13 10:54:18;;;;;;;35.45;27.17;;;;;;;10.47;100.00;101417.91;5078607;28;20052;-71
2024/03/13 10:57:07;;;;;;;39.63;28.20;;;;;;;10.48;100.00;101412.19;5112901;28;20054;-71
2024/03/13 10:59:56;;;;;;;42.70;27.98;;;;;;;10.49;100.00;101411.13;5099510;28;20085;-68
2024/03/13 11:02:44;;;;;;;35.25;25.17;;;;;;;10.52;100.00;101409.78;5100067;28;20059;-68
2024/03/13 11:05:32;;;;;;;35.80;25.13;;;;;;;10.53;100.00;101412.25;5100927;28;20052;-68
2024/03/13 11:08:21;;;;;;;33.88;25.45;;;;;;;10.57;100.00;101402.50;5100503;28;20134;-68
2024/03/13 11:11:14;;;;;;;32.55;22.38;;;;;;;10.62;100.00;101413.47;5115410;28;20051;-69
2024/03/13 11:14:10;;;;;;;28.45;19.45;;;;;;;10.66;100.00;101405.63;5089119;28;20053;-68
2024/03/13 11:17:03;;;;;;;30.38;21.13;;;;;;;10.70;100.00;101405.91;5087400;28;20138;-69
2024/03/13 11:20:07;;;;;;;30.33;19.55;;;;;;;10.72;100.00;101415.47;5114614;28;20180;-69
2024/03/13 11:23:29;;;;;;;31.90;19.17;;;;;;;10.75;100.00;101405.97;5081436;28;20130;-68
2024/03/13 11:26:19;;;;;;;26.15;17.52;;;;;;;10.74;100.00;101404.34;5086612;28;20796;-69
2024/03/13 11:29:11;;;;;;;25.33;16.27;;;;;;;10.75;100.00;101419.59;5100876;28;20052;-69
2024/03/13 11:31:59;;;;;;;29.20;18.15;;;;;;;10.76;100.00;101421.25;5101011;28;20048;-69
2024/03/13 11:34:49;;;;;;;26.23;17.38;;;;;;;10.76;100.00;101421.25;5099836;28;20168;-69
2024/03/13 11:37:37;;;;;;;23.45;16.35;;;;;;;10.77;100.00;101417.44;5115204;28;20126;-70
2024/03/13 11:40:26;;;;;;;24.65;19.00;;;;;;;10.79;100.00;101413.38;5093773;28;20043;-69
2024/03/13 11:43:25;;;;;;;25.88;18.33;;;;;;;10.78;100.00;101419.09;5085849;28;20515;-70
2024/03/13 11:46:16;;;;;;;27.98;19.63;;;;;;;10.78;100.00;101421.84;5078858;28;20052;-69
2024/03/13 11:49:06;;;;;;;29.70;20.80;;;;;;;10.77;100.00;101417.44;5085935;28;20094;-70
2024/03/13 11:52:04;;;;;;;30.52;21.55;;;;;;;10.79;100.00;101412.56;5079208;28;20369;-68
2024/03/13 11:54:56;;;;;;;27.27;21.77;;;;;;;10.79;100.00;101413.38;5092882;28;20126;-70
2024/03/13 11:57:47;;;;;;;29.50;21.38;;;;;;;10.83;100.00;101417.25;5095014;28;20055;-69
2024/03/13 12:00:35;;;;;;;32.35;22.17;;;;;;;10.84;100.00;101418.06;5093535;28;20055;-70
2024/03/13 12:03:44;;;;;;;27.10;18.00;;;;;;;10.89;100.00;101412.69;5094402;28;20047;-69
2024/03/13 12:06:37;;;;;;;27.67;19.02;;;;;;;10.87;100.00;101412.09;5092944;28;20048;-70
2024/03/13 12:09:27;;;;;;;25.77;19.83;;;;;;;10.86;100.00;101413.19;5067936;28;20381;-69
2024/03/13 12:12:15;;;;;;;25.88;18.15;;;;;;;10.87;100.00;101409.38;5102801;28;20052;-68
2024/03/13 12:15:07;;;;;;;18.85;15.95;;;;;;;10.92;100.00;101409.47;5086204;28;20495;-69
2024/03/13 12:17:55;;;;;;;24.35;16.52;;;;;;;10.94;100.00;101401.00;5113119;28;20184;-69
2024/03/13 12:20:45;;;;;;;21.90;15.43;;;;;;;10.95;100.00;101398.03;4406310;28;10000198;-68
2024/03/13 12:23:33;;;;;;;20.33;13.85;;;;;;;10.99;100.00;101396.44;5090051;28;20078;-69
2024/03/13 12:26:24;;;;;;;20.23;14.48;;;;;;;10.98;100.00;101397.50;5090156;28;20100;-69
2024/03/13 12:29:12;;;;;;;19.88;14.05;;;;;;;11.02;100.00;101397.84;5102257;28;20155;-68
2024/03/13 12:32:01;;;;;;;19.35;12.85;;;;;;;11.03;100.00;101389.38;5082123;28;20151;-69
2024/03/13 12:34:49;;;;;;;22.90;15.10;;;;;;;11.05;100.00;101398.13;5110216;28;20181;-70
2024/03/13 12:37:38;;;;;;;20.77;13.05;;;;;;;11.12;100.00;101391.66;5095473;28;20043;-69
2024/03/13 12:40:26;;;;;;;17.15;11.38;;;;;;;11.11;100.00;101390.81;5085308;28;20515;-70
2024/03/13 12:43:16;;;;;;;20.75;11.95;;;;;;;11.18;100.00;101390.63;5090345;28;20078;-69
2024/03/13 12:46:05;;;;;;;19.00;10.65;;;;;;;11.19;100.00;101382.19;5075028;28;20055;-69
2024/03/13 12:48:53;;;;;;;16.58;9.98;;;;;;;11.23;100.00;101387.94;5093505;28;20480;-69
2024/03/13 12:51:42;;;;;;;18.50;11.93;;;;;;;11.24;100.00;101381.41;5095419;28;20058;-70
2024/03/13 12:54:30;;;;;;;17.33;12.40;;;;;;;11.22;100.00;101387.13;5099309;28;20044;-71
2024/03/13 12:57:18;;;;;;;15.57;9.27;;;;;;;11.21;100.00;101373.75;5091193;28;20485;-70
2024/03/13 13:00:14;;;;;;;18.15;12.30;;;;;;;11.21;100.00;101381.94;5076468;28;20044;-70
2024/03/13 13:03:04;;;;;;;;;;;;;;;11.24;100.00;101384.13;5089101;28;20044;-68
2024/03/13 13:05:53;;;;;;;16.25;11.65;;;;;;;11.25;100.00;101383.03;5060416;28;19922;-71
2024/03/13 13:08:44;;;;;;;15.90;10.60;;;;;;;11.23;100.00;101390.66;5101877;28;20051;-70
2024/03/13 13:11:32;;;;;;;16.10;9.60;;;;;;;11.22;100.00;101387.13;5095161;28;20125;-70
2024/03/13 13:14:20;;;;;;;12.70;7.00;;;;;;;11.24;100.00;101386.88;5109065;28;20048;-69
2024/03/13 13:17:09;;;;;;;12.32;8.43;;;;;;;11.22;100.00;101391.75;5108957;28;20099;-70
2024/03/13 13:19:56;;;;;;;12.30;8.60;;;;;;;11.25;100.00;101388.50;5109685;28;20523;-69